Nearby METAR Reports

 

EGTE - Exeter Airport, United Kingdom
Distance from station: S 19km
Updated: 23/01/2019 21:20
Clear
Clear
 Wind from calm
Wind: Calm
Temperature: 3°C
Dew Point: 1°C
Humidity: 87%
Barometer: 1008 hPa
Summary: Clear
Visibility: greater than 10 km
2019/01/23 21:20 EGTE 232120Z 00000KT CAVOK 03/01 Q1008
EGDY - Yeovilton (navy), United Kingdom
Distance from station: ENE 55km
Updated: 23/01/2019 20:50
Mostly cloudy
Mostly cloudy
 Wind from calm
Wind: Calm
Temperature: 0°C
Dew Point: -1°C
Humidity: 93%
Barometer: 1008 hPa
Clouds: Mostly cloudy
Visibility: 10 km
Cloud details: Few Clouds 914 m
Mostly cloudy 3048 m
2019/01/23 20:50 EGDY 232050Z 00000KT 9999 FEW030 BKN100 M00/M01 Q1008 BLU NOSIG
 
EGFF - Cardiff-Wales Ar, United Kingdom
Distance from station: N 56km
Updated: 23/01/2019 21:20
Clear
Clear
 Wind from N
Wind: N 6 km/h
Temperature: 3°C
Dew Point: 1°C
Humidity: 87%
Barometer: 1008 hPa
Clouds: Clear
Visibility: 10 km
2019/01/23 21:20 EGFF 232120Z AUTO 35003KT 9999 NCD 03/01 Q1008
EGDX - St Athan Raf, United Kingdom
Distance from station: N 58km
Updated: 23/01/2019 20:50
Mostly cloudy
Mostly cloudy
 Wind from N
Wind: N 4 km/h
Temperature: 3°C
Dew Point: 1°C
Humidity: 87%
Barometer: 1007 hPa
Clouds: Mostly cloudy
Visibility: 10 km
Cloud details: Mostly cloudy 2438 m
2019/01/23 20:50 EGDX 232050Z AUTO 36002KT 9999 BKN080/// 03/01 Q1007
 
EGGD - Bristol/Lulsgate, United Kingdom
Distance from station: NE 71km
Updated: 23/01/2019 21:20
Clear
Clear
 Wind from SW
Wind: SW 6 km/h
Temperature: 2°C
Dew Point: 0°C
Humidity: 87%
Barometer: 1007 hPa
Clouds: Clear
Visibility: 10 km
2019/01/23 21:20 EGGD 232120Z AUTO 23003KT 9999 NCD 02/M00 Q1007